Nea Anchialos, Greece
Current Conditions -  °F | °C
As of 2:20 PM on Friday 24 Oct 2014 (Local Time) from LGBL Reporting Station
Moderate Rain Moderate Rain  
Wind Chill: 55°   Ceiling: 2500
Heat Index: 55°   Visibility: 3mi
Dew Point: 54°   Wind: 5mph
Humidity: 94%   Direction: 260°W
Pressure: 29.68"   Gusts: NA
Location:  39.27°N, 22.82°E
Report Text: LGBL 241220Z 26004KT 5000 RA FEW008 BKN025 OVC070 13/12 Q1005
Loading
Personal Weather Stations






























Interactive Weather Map
Tropical Storm Tracking
New forecast layout! Learn more

10-Day Weather Forecast

Advertisements
Track Severe Weather on mobile